Time;durP1;ratioP1;P1;durP2;ratioP2;P2;SDS_P1;SDS_P2;PMS_P1;PMS_P2;Temp;Humidity;BMP_temperature;BMP_pressure;BME280_temperature;BME280_humidity;BME280_pressure;Samples;Min_cycle;Max_cycle;Signal;HPM_P1;HPM_P2
2023/04/05 00:01:24;;;;;;;;;;;;;;;;;;6214747;23;20237;-88
2023/04/05 00:03:51;;;;;;;;;;;;;;;;;;6197344;23;19920;-88
2023/04/05 00:06:20;;;;;;;;;;;;;;;;;;6187568;23;19927;-88
2023/04/05 00:08:49;;;;;;;;;;;;;;;;;;6187522;23;19943;-87
2023/04/05 00:11:16;;;;;;;;;;;;;;;;;;6221335;23;19943;-88
2023/04/05 00:13:43;;;;;;;;;;;;;;;;;;6187242;23;20264;-88
2023/04/05 00:16:10;;;;;;;;;;;;;;;;;;6223753;23;19931;-88
2023/04/05 00:18:44;;;;;;;;;;;;;;;;;;6187722;23;19927;-88
2023/04/05 00:21:13;;;;;;;;;;;;;;;;;;6221783;23;19920;-88
2023/04/05 00:23:40;;;;;;;;;;;;;;;;;;6214366;23;19931;-88
2023/04/05 00:26:07;;;;;;;;;;;;;;;;;;6197504;23;19920;-88
2023/04/05 00:28:34;;;;;;;;;;;;;;;;;;6197980;23;19920;-88
2023/04/05 00:31:01;;;;;;;;;;;;;;;;;;6162538;23;19920;-88
2023/04/05 00:33:28;;;;;;;;;;;;;;;;;;6189988;23;19920;-88
2023/04/05 00:35:56;;;;;;;;;;;;;;;;;;6188991;23;19920;-88
2023/04/05 00:38:23;;;;;;;;;;;;;;;;;;6164959;23;19920;-88
2023/04/05 00:40:55;;;;;;;;;;;;;;;;;;6198517;23;19920;-88
2023/04/05 00:43:22;;;;;;;;;;;;;;;;;;6189594;23;20355;-88
2023/04/05 00:45:53;;;;;;;;;;;;;;;;;;6163652;23;19979;-88
2023/04/05 00:48:23;;;;;;;;;;;;;;;;;;6199608;23;19927;-88
2023/04/05 00:50:50;;;;;;;;;;;;;;;;;;6215645;23;19920;-88
2023/04/05 00:53:19;;;;;;;;;;;;;;;;;;6162907;23;19955;-88
2023/04/05 00:55:46;;;;;;;;;;;;;;;;;;6189061;23;19920;-89
2023/04/05 00:58:13;;;;;;;;;;;;;;;;;;6163447;23;19941;-88
2023/04/05 01:00:40;;;;;;;;;;;;;;;;;;6189660;23;19920;-88
2023/04/05 01:03:07;;;;;;;;;;;;;;;;;;6187883;23;19920;-88
2023/04/05 01:05:40;;;;;;;;;;;;;;;;;;6188794;23;19919;-88
2023/04/05 01:08:12;;;;;;;;;;;;;;;;;;6199509;23;20184;-88
2023/04/05 01:48:03;;;;;;;;;;;;;;;;;;6224954;23;19923;-88
2023/04/05 01:50:33;;;;;;;;;;;;;;;;;;6199061;23;19943;-88
2023/04/05 01:53:00;;;;;;;;;;;;;;;;;;6187043;23;19923;-87
2023/04/05 01:55:29;;;;;;;;;;;;;;;;;;6214680;23;19920;-87
2023/04/05 01:57:58;;;;;;;;;;;;;;;;;;6198633;23;19938;-87
2023/04/05 02:00:27;;;;;;;;;;;;;;;;;;6163925;23;19920;-87
2023/04/05 02:02:54;;;;;;;;;;;;;;;;;;6187013;23;19920;-87
2023/04/05 02:05:23;;;;;;;;;;;;;;;;;;6164238;23;19924;-87
2023/04/05 02:07:50;;;;;;;;;;;;;;;;;;6188405;23;19920;-87
2023/04/05 02:10:17;;;;;;;;;;;;;;;;;;6164307;23;19943;-86
2023/04/05 02:12:45;;;;;;;;;;;;;;;;;;6162800;23;20363;-87
2023/04/05 02:15:12;;;;;;;;;;;;;;;;;;6162936;23;19935;-87
2023/04/05 02:17:44;;;;;;;;;;;;;;;;;;6163336;23;20237;-87
2023/04/05 02:20:13;;;;;;;;;;;;;;;;;;6199055;23;20256;-87
2023/04/05 02:22:44;;;;;;;;;;;;;;;;;;6163222;23;19920;-86
2023/04/05 02:25:11;;;;;;;;;;;;;;;;;;6198210;23;19942;-87
2023/04/05 02:27:40;;;;;;;;;;;;;;;;;;6188131;23;19927;-86
2023/04/05 02:30:08;;;;;;;;;;;;;;;;;;6215072;23;19942;-86
2023/04/05 02:32:35;;;;;;;;;;;;;;;;;;6188064;23;20178;-86
2023/04/05 02:35:02;;;;;;;;;;;;;;;;;;6187667;23;19924;-86
2023/04/05 02:37:29;;;;;;;;;;;;;;;;;;6214922;23;19927;-86
2023/04/05 02:40:00;;;;;;;;;;;;;;;;;;6188489;23;19920;-87
2023/04/05 02:42:27;;;;;;;;;;;;;;;;;;6217506;23;19931;-86
2023/04/05 02:44:54;;;;;;;;;;;;;;;;;;6187827;23;19942;-87
2023/04/05 02:47:22;;;;;;;;;;;;;;;;;;6162478;23;19935;-87
2023/04/05 02:49:57;;;;;;;;;;;;;;;;;;6198240;23;20304;-86
2023/04/05 02:52:26;;;;;;;;;;;;;;;;;;6187222;23;19920;-86
2023/04/05 02:54:53;;;;;;;;;;;;;;;;;;6162069;23;20280;-86
2023/04/05 02:57:29;;;;;;;;;;;;;;;;;;6213945;23;19919;-86
2023/04/05 03:00:07;;;;;;;;;;;;;;;;;;6198146;23;19927;-87
2023/04/05 03:02:36;;;;;;;;;;;;;;;;;;6190110;23;20305;-86
2023/04/05 03:05:03;;;;;;;;;;;;;;;;;;6186949;23;19920;-86
2023/04/05 03:07:34;;;;;;;;;;;;;;;;;;6213939;23;19931;-87
2023/04/05 03:10:05;;;;;;;;;;;;;;;;;;6198027;23;20348;-87
2023/04/05 03:12:37;;;;;;;;;;;;;;;;;;6190713;23;19920;-86
2023/04/05 03:15:06;;;;;;;;;;;;;;;;;;6162464;23;19926;-87
2023/04/05 03:17:38;;;;;;;;;;;;;;;;;;6197463;23;19927;-86
2023/04/05 03:20:08;;;;;;;;;;;;;;;;;;6162382;23;19920;-86
2023/04/05 03:22:36;;;;;;;;;;;;;;;;;;6189878;23;20333;-87
2023/04/05 03:25:06;;;;;;;;;;;;;;;;;;6161956;23;19920;-87
2023/04/05 03:27:38;;;;;;;;;;;;;;;;;;6187348;23;19920;-86
2023/04/05 03:30:21;;;;;;;;;;;;;;;;;;6163750;23;19924;-86
2023/04/05 03:33:00;;;;;;;;;;;;;;;;;;6187399;23;20359;-86
2023/04/05 03:35:37;;;;;;;;;;;;;;;;;;6161661;23;19920;-86
2023/04/05 03:38:07;;;;;;;;;;;;;;;;;;6195405;23;19920;-86
2023/04/05 03:40:36;;;;;;;;;;;;;;;;;;6188152;23;19927;-87
2023/04/05 03:43:06;;;;;;;;;;;;;;;;;;6161950;23;19924;-86
2023/04/05 03:45:33;;;;;;;;;;;;;;;;;;6187810;23;19920;-86
2023/04/05 03:48:01;;;;;;;;;;;;;;;;;;6162170;23;19924;-86
2023/04/05 03:50:29;;;;;;;;;;;;;;;;;;6186811;23;19920;-87
2023/04/05 03:52:56;;;;;;;;;;;;;;;;;;6160503;23;19924;-87
2023/04/05 03:55:24;;;;;;;;;;;;;;;;;;6187866;23;19942;-87
2023/04/05 03:57:52;;;;;;;;;;;;;;;;;;6160764;23;19931;-86
2023/04/05 04:00:25;;;;;;;;;;;;;;;;;;6162792;23;20113;-86
2023/04/05 04:06:15;;;;;;;;;;;;;;;;;;6218035;23;20354;-91
2023/04/05 04:08:42;;;;;;;;;;;;;;;;;;6194255;23;20355;-91
2023/04/05 04:11:10;;;;;;;;;;;;;;;;;;6194110;23;19927;-91
2023/04/05 04:13:39;;;;;;;;;;;;;;;;;;6219106;23;19926;-91
2023/04/05 04:16:19;;;;;;;;;;;;;;;;;;6193027;23;20259;-91
2023/04/05 04:18:57;;;;;;;;;;;;;;;;;;6193351;23;19923;-91
2023/04/05 04:21:38;;;;;;;;;;;;;;;;;;6194291;23;19924;-91
2023/04/05 04:24:37;;;;;;;;;;;;;;;;;;6192063;23;19920;-91
2023/04/05 04:27:23;;;;;;;;;;;;;;;;;;6219349;23;19930;-91
2023/04/05 04:30:21;;;;;;;;;;;;;;;;;;6199141;23;19919;-91
2023/04/05 04:33:23;;;;;;;;;;;;;;;;;;6169631;23;19919;-91
2023/04/05 04:36:01;;;;;;;;;;;;;;;;;;6219584;23;20269;-90
2023/04/05 04:38:44;;;;;;;;;;;;;;;;;;6194188;23;20263;-90
2023/04/05 04:41:32;;;;;;;;;;;;;;;;;;6220856;23;19945;-91
2023/04/05 04:44:27;;;;;;;;;;;;;;;;;;6219809;23;19927;-91
2023/04/05 04:47:16;;;;;;;;;;;;;;;;;;6196053;23;19926;-90
2023/04/05 04:50:12;;;;;;;;;;;;;;;;;;6177750;23;19920;-90
2023/04/05 04:52:40;;;;;;;;;;;;;;;;;;6202690;23;19927;-89
2023/04/05 04:55:08;;;;;;;;;;;;;;;;;;6230178;23;20403;-91
2023/04/05 04:57:35;;;;;;;;;;;;;;;;;;6207542;23;19926;-91
2023/04/05 05:00:06;;;;;;;;;;;;;;;;;;6202784;23;19923;-91
2023/04/05 05:02:33;;;;;;;;;;;;;;;;;;6194979;23;19920;-90
2023/04/05 05:05:00;;;;;;;;;;;;;;;;;;6193871;23;20343;-90
2023/04/05 05:07:33;;;;;;;;;;;;;;;;;;6218510;23;19920;-90
2023/04/05 05:10:03;;;;;;;;;;;;;;;;;;6195440;23;19920;-90
2023/04/05 05:12:31;;;;;;;;;;;;;;;;;;6194776;23;19919;-90
2023/04/05 05:14:58;;;;;;;;;;;;;;;;;;6219399;23;19943;-90
2023/04/05 05:17:28;;;;;;;;;;;;;;;;;;6194180;23;19920;-91
2023/04/05 05:19:55;;;;;;;;;;;;;;;;;;6196363;23;19921;-90
2023/04/05 05:22:26;;;;;;;;;;;;;;;;;;6223011;23;19919;-90
2023/04/05 05:36:13;;;;;;;;;;;;;;;;;;6210966;23;19924;-90
2023/04/05 05:47:12;;;;;;;;;;;;;;;;;;6198085;23;19924;-90
2023/04/05 05:52:45;;;;;;;;;;;;;;;;;;6201116;23;19930;-93
2023/04/05 06:04:21;;;;;;;;;;;;;;;;;;6215600;23;20358;-92
2023/04/05 06:07:12;;;;;;;;;;;;;;;;;;6246317;23;19920;-92
2023/04/05 10:04:22;;;;;;;;;;;;;;;;;;6236934;22;19928;-89
2023/04/05 10:06:52;;;;;;;;;;;;;;;;;;6170440;23;19920;-88
2023/04/05 10:09:19;;;;;;;;;;;;;;;;;;6172507;23;19930;-88
2023/04/05 10:11:49;;;;;;;;;;;;;;;;;;6169846;23;19920;-88
2023/04/05 10:14:16;;;;;;;;;;;;;;;;;;6164471;23;19920;-87
2023/04/05 10:16:52;;;;;;;;;;;;;;;;;;6143276;23;19920;-88
2023/04/05 10:19:24;;;;;;;;;;;;;;;;;;6146930;23;19934;-87
2023/04/05 10:21:51;;;;;;;;;;;;;;;;;;6172964;23;19920;-87
2023/04/05 10:24:24;;;;;;;;;;;;;;;;;;6147352;23;19924;-87
2023/04/05 10:27:03;;;;;;;;;;;;;;;;;;6139211;23;19924;-87
2023/04/05 10:29:34;;;;;;;;;;;;;;;;;;6199306;23;19927;-88
2023/04/05 10:32:05;;;;;;;;;;;;;;;;;;6140106;23;20348;-87
2023/04/05 10:34:39;;;;;;;;;;;;;;;;;;6162543;23;19927;-89
2023/04/05 10:37:08;;;;;;;;;;;;;;;;;;6138016;23;19920;-86
2023/04/05 10:39:40;;;;;;;;;;;;;;;;;;6162897;23;20214;-87
2023/04/05 10:42:11;;;;;;;;;;;;;;;;;;6198001;23;19947;-89
2023/04/05 10:44:39;;;;;;;;;;;;;;;;;;6166899;23;19920;-86
2023/04/05 10:47:06;;;;;;;;;;;;;;;;;;6162615;23;19927;-87
2023/04/05 10:49:35;;;;;;;;;;;;;;;;;;6162133;23;19921;-88
2023/04/05 10:52:03;;;;;;;;;;;;;;;;;;6137425;23;19931;-87
2023/04/05 10:54:33;;;;;;;;;;;;;;;;;;6138010;23;19920;-88
2023/04/05 10:57:01;;;;;;;;;;;;;;;;;;6140199;23;19936;-89
2023/04/05 10:59:28;;;;;;;;;;;;;;;;;;6139297;23;20352;-89
2023/04/05 11:01:55;;;;;;;;;;;;;;;;;;6141636;23;19943;-87
2023/04/05 11:04:23;;;;;;;;;;;;;;;;;;6141013;23;20251;-88
2023/04/05 11:07:06;;;;;;;;;;;;;;;;;;6165302;23;19930;-89
2023/04/05 11:09:36;;;;;;;;;;;;;;;;;;6165661;23;20283;-88
2023/04/05 11:12:03;;;;;;;;;;;;;;;;;;6164839;23;20245;-88
2023/04/05 11:14:35;;;;;;;;;;;;;;;;;;6140773;23;20267;-89
2023/04/05 11:17:02;;;;;;;;;;;;;;;;;;6190912;23;19920;-88
2023/04/05 11:19:44;;;;;;;;;;;;;;;;;;6166103;23;19943;-88
2023/04/05 11:22:15;;;;;;;;;;;;;;;;;;6167655;23;19920;-88
2023/04/05 11:24:52;;;;;;;;;;;;;;;;;;6142651;23;19977;-87
2023/04/05 11:27:25;;;;;;;;;;;;;;;;;;6146207;23;19924;-89
2023/04/05 11:29:53;;;;;;;;;;;;;;;;;;6181449;23;19920;-88
2023/04/05 11:32:22;;;;;;;;;;;;;;;;;;6144931;23;19942;-89
2023/04/05 11:35:09;;;;;;;;;;;;;;;;;;6145608;23;19926;-88
2023/04/05 11:37:53;;;;;;;;;;;;;;;;;;6145596;23;19924;-88
2023/04/05 11:40:31;;;;;;;;;;;;;;;;;;6146790;23;19924;-89
2023/04/05 11:42:59;;;;;;;;;;;;;;;;;;6146534;23;19924;-88
2023/04/05 11:45:29;;;;;;;;;;;;;;;;;;6151546;23;20163;-88
2023/04/05 11:47:59;;;;;;;;;;;;;;;;;;6182727;23;19920;-88
2023/04/05 11:50:29;;;;;;;;;;;;;;;;;;6181182;23;19921;-87
2023/04/05 11:53:12;;;;;;;;;;;;;;;;;;6153423;23;19968;-89
2023/04/05 11:55:46;;;;;;;;;;;;;;;;;;6151911;23;19921;-88
2023/04/05 11:58:14;;;;;;;;;;;;;;;;;;6203104;23;19920;-88
2023/04/05 12:00:45;;;;;;;;;;;;;;;;;;6176023;23;19927;-90
2023/04/05 12:03:14;;;;;;;;;;;;;;;;;;6212404;23;19927;-87
2023/04/05 12:05:52;;;;;;;;;;;;;;;;;;6151758;23;19927;-89
2023/04/05 12:08:21;;;;;;;;;;;;;;;;;;6186088;23;19924;-89
2023/04/05 12:10:56;;;;;;;;;;;;;;;;;;6150855;23;19920;-86
2023/04/05 12:13:28;;;;;;;;;;;;;;;;;;6150703;23;19920;-88
2023/04/05 12:16:01;;;;;;;;;;;;;;;;;;6174284;23;19924;-89
2023/04/05 12:18:30;;;;;;;;;;;;;;;;;;6176620;23;19926;-90
2023/04/05 12:21:03;;;;;;;;;;;;;;;;;;6153676;23;19926;-89
2023/04/05 12:23:37;;;;;;;;;;;;;;;;;;6153082;23;19943;-88
2023/04/05 12:26:17;;;;;;;;;;;;;;;;;;6186687;23;19916;-88
2023/04/05 12:28:52;;;;;;;;;;;;;;;;;;6188631;23;19920;-89
2023/04/05 12:31:34;;;;;;;;;;;;;;;;;;6188378;23;19939;-89
2023/04/05 12:34:04;;;;;;;;;;;;;;;;;;6154424;23;20129;-88
2023/04/05 12:36:32;;;;;;;;;;;;;;;;;;6215751;23;19920;-90
2023/04/05 12:39:05;;;;;;;;;;;;;;;;;;6189730;23;19927;-88
2023/04/05 12:41:35;;;;;;;;;;;;;;;;;;6178710;23;19926;-88
2023/04/05 12:44:17;;;;;;;;;;;;;;;;;;6153181;23;19930;-89
2023/04/05 12:46:50;;;;;;;;;;;;;;;;;;6188625;23;19926;-88
2023/04/05 12:49:34;;;;;;;;;;;;;;;;;;6178317;23;20362;-90
2023/04/05 12:52:02;;;;;;;;;;;;;;;;;;6178173;23;20278;-88
2023/04/05 12:54:33;;;;;;;;;;;;;;;;;;6153555;23;20282;-89
2023/04/05 12:57:13;;;;;;;;;;;;;;;;;;6178126;23;19904;-89
2023/04/05 12:59:43;;;;;;;;;;;;;;;;;;6178574;23;19920;-89
2023/04/05 13:02:15;;;;;;;;;;;;;;;;;;6178685;23;19924;-89
2023/04/05 13:04:42;;;;;;;;;;;;;;;;;;6182566;23;19916;-88
2023/04/05 13:07:10;;;;;;;;;;;;;;;;;;6154940;23;19924;-89
2023/04/05 13:09:38;;;;;;;;;;;;;;;;;;6182173;23;19927;-89
2023/04/05 13:12:11;;;;;;;;;;;;;;;;;;6153170;23;19927;-89
2023/04/05 13:14:47;;;;;;;;;;;;;;;;;;6154613;23;19926;-88
2023/04/05 13:17:14;;;;;;;;;;;;;;;;;;6154753;23;19927;-89
2023/04/05 13:19:44;;;;;;;;;;;;;;;;;;6176705;23;20368;-87
2023/04/05 13:22:11;;;;;;;;;;;;;;;;;;6177556;23;19927;-89
2023/04/05 13:24:38;;;;;;;;;;;;;;;;;;6152355;23;19921;-88
2023/04/05 13:27:08;;;;;;;;;;;;;;;;;;6152141;23;19921;-88
2023/04/05 13:29:41;;;;;;;;;;;;;;;;;;6177770;23;19920;-90
2023/04/05 13:32:26;;;;;;;;;;;;;;;;;;6188864;23;19920;-89
2023/04/05 13:34:53;;;;;;;;;;;;;;;;;;6205873;23;19920;-90
2023/04/05 13:37:20;;;;;;;;;;;;;;;;;;6180880;23;19927;-88
2023/04/05 13:39:48;;;;;;;;;;;;;;;;;;6205084;23;19931;-90
2023/04/05 13:42:19;;;;;;;;;;;;;;;;;;6205033;23;20117;-90
2023/04/05 13:44:55;;;;;;;;;;;;;;;;;;6205737;23;19919;-89
2023/04/05 13:47:28;;;;;;;;;;;;;;;;;;6178527;23;19946;-87
2023/04/05 13:50:01;;;;;;;;;;;;;;;;;;6240270;23;19920;-88
2023/04/05 13:52:31;;;;;;;;;;;;;;;;;;6203873;23;20393;-88
2023/04/05 13:55:03;;;;;;;;;;;;;;;;;;6205464;23;19927;-89
2023/04/05 13:57:33;;;;;;;;;;;;;;;;;;6214860;23;19920;-88
2023/04/05 14:00:11;;;;;;;;;;;;;;;;;;6178974;23;19942;-88
2023/04/05 14:02:39;;;;;;;;;;;;;;;;;;6202455;23;20107;-88
2023/04/05 14:05:10;;;;;;;;;;;;;;;;;;6180265;23;20259;-89
2023/04/05 14:07:40;;;;;;;;;;;;;;;;;;6180527;23;19920;-89
2023/04/05 14:10:07;;;;;;;;;;;;;;;;;;6179663;23;19926;-89
2023/04/05 14:12:36;;;;;;;;;;;;;;;;;;6177734;23;19920;-88
2023/04/05 14:15:07;;;;;;;;;;;;;;;;;;6200635;23;19934;-88
2023/04/05 14:17:36;;;;;;;;;;;;;;;;;;6174944;23;19920;-88
2023/04/05 14:20:06;;;;;;;;;;;;;;;;;;6200957;23;19920;-88
2023/04/05 14:22:35;;;;;;;;;;;;;;;;;;6199408;23;19920;-88
2023/04/05 14:25:03;;;;;;;;;;;;;;;;;;6200666;23;19930;-88
2023/04/05 14:27:32;;;;;;;;;;;;;;;;;;6239976;23;19923;-88
2023/04/05 14:29:59;;;;;;;;;;;;;;;;;;6227125;23;19927;-87
2023/04/05 14:32:29;;;;;;;;;;;;;;;;;;6197093;23;19920;-89
2023/04/05 14:34:58;;;;;;;;;;;;;;;;;;6197375;23;19920;-87
2023/04/05 14:37:26;;;;;;;;;;;;;;;;;;6196578;23;19920;-87
2023/04/05 14:39:53;;;;;;;;;;;;;;;;;;6195854;23;19920;-88
2023/04/05 14:42:23;;;;;;;;;;;;;;;;;;6172963;23;19930;-89
2023/04/05 14:44:50;;;;;;;;;;;;;;;;;;6202989;23;19930;-89
2023/04/05 14:47:19;;;;;;;;;;;;;;;;;;6221223;23;19926;-89
2023/04/05 14:49:50;;;;;;;;;;;;;;;;;;6203529;23;19926;-88
2023/04/05 14:52:19;;;;;;;;;;;;;;;;;;6195665;23;19927;-87
2023/04/05 14:54:49;;;;;;;;;;;;;;;;;;6197621;23;19920;-88
2023/04/05 14:57:19;;;;;;;;;;;;;;;;;;6197297;23;19920;-88
2023/04/05 14:59:47;;;;;;;;;;;;;;;;;;6173045;23;19927;-87
2023/04/05 15:02:14;;;;;;;;;;;;;;;;;;6173687;23;19926;-89
2023/04/05 15:04:41;;;;;;;;;;;;;;;;;;6196409;23;19919;-88
2023/04/05 15:07:09;;;;;;;;;;;;;;;;;;6194425;23;19970;-87
2023/04/05 15:09:38;;;;;;;;;;;;;;;;;;6197401;23;19920;-89
2023/04/05 15:12:05;;;;;;;;;;;;;;;;;;6195973;23;19926;-89
2023/04/05 15:14:35;;;;;;;;;;;;;;;;;;6201009;23;19924;-88
2023/04/05 15:17:05;;;;;;;;;;;;;;;;;;6197355;23;19930;-88
2023/04/05 15:19:34;;;;;;;;;;;;;;;;;;6196888;23;19946;-88
2023/04/05 15:22:03;;;;;;;;;;;;;;;;;;6171826;23;19920;-88
2023/04/05 15:24:33;;;;;;;;;;;;;;;;;;6172022;23;19926;-89
2023/04/05 15:27:02;;;;;;;;;;;;;;;;;;6172686;23;19920;-88
2023/04/05 15:29:32;;;;;;;;;;;;;;;;;;6223407;23;19926;-89
2023/04/05 15:31:59;;;;;;;;;;;;;;;;;;6229543;23;19930;-88
2023/04/05 15:34:27;;;;;;;;;;;;;;;;;;6195689;23;19926;-89
2023/04/05 15:36:56;;;;;;;;;;;;;;;;;;6197605;23;19942;-89
2023/04/05 15:39:25;;;;;;;;;;;;;;;;;;6208037;23;19924;-88
2023/04/05 15:42:12;;;;;;;;;;;;;;;;;;6198112;23;20436;-87
2023/04/05 15:44:45;;;;;;;;;;;;;;;;;;6196912;23;19923;-88
2023/04/05 15:47:12;;;;;;;;;;;;;;;;;;6172242;23;19924;-89
2023/04/05 15:49:39;;;;;;;;;;;;;;;;;;6222523;23;19920;-87
2023/04/05 15:52:07;;;;;;;;;;;;;;;;;;6199229;23;19920;-88
2023/04/05 15:54:34;;;;;;;;;;;;;;;;;;6178239;23;19926;-88
2023/04/05 15:57:06;;;;;;;;;;;;;;;;;;6199368;23;19930;-88
2023/04/05 15:59:33;;;;;;;;;;;;;;;;;;6197931;23;19924;-88
2023/04/05 17:55:19;;;;;;;;;;;;;;;;;;6232764;23;19923;-93
2023/04/05 18:06:09;;;;;;;;;;;;;;;;;;;;;
2023/04/05 18:08:41;;;;;;;;;;;;;;;;;;6012092;23;19926;-93
2023/04/05 18:11:08;;;;;;;;;;;;;;;;;;6016832;23;19926;-93
2023/04/05 18:13:36;;;;;;;;;;;;;;;;;;6104673;23;19920;-93
2023/04/05 18:16:08;;;;;;;;;;;;;;;;;;6143916;23;19921;-93
2023/04/05 18:18:44;;;;;;;;;;;;;;;;;;6169583;23;19924;-94
2023/04/05 18:31:48;;;;;;;;;;;;;;;;;;6072271;23;19921;-92
2023/04/05 20:05:05;;;;;;;;;;;;;;;;;;6242224;23;19908;-94
2023/04/05 20:07:38;;;;;;;;;;;;;;;;;;6226589;23;19922;-93
2023/04/05 20:10:19;;;;;;;;;;;;;;;;;;6226333;23;19908;-92
2023/04/05 20:12:50;;;;;;;;;;;;;;;;;;6214716;23;19960;-91
2023/04/05 20:15:34;;;;;;;;;;;;;;;;;;6228286;23;20252;-92
2023/04/05 20:18:19;;;;;;;;;;;;;;;;;;6189911;23;19926;-93
2023/04/05 20:20:48;;;;;;;;;;;;;;;;;;6201233;23;19920;-93
2023/04/05 20:23:17;;;;;;;;;;;;;;;;;;6217241;23;19920;-93
2023/04/05 20:25:45;;;;;;;;;;;;;;;;;;6217702;23;20340;-93
2023/04/05 20:28:28;;;;;;;;;;;;;;;;;;6190279;23;19930;-93
2023/04/05 20:30:55;;;;;;;;;;;;;;;;;;6189912;23;19927;-93
2023/04/05 20:33:33;;;;;;;;;;;;;;;;;;6166071;23;19924;-93
2023/04/05 20:36:08;;;;;;;;;;;;;;;;;;6228819;23;19920;-92
2023/04/05 20:38:36;;;;;;;;;;;;;;;;;;6165608;23;19927;-93
2023/04/05 20:41:07;;;;;;;;;;;;;;;;;;6189041;23;19935;-91
2023/04/05 20:43:34;;;;;;;;;;;;;;;;;;6195371;23;19920;-92
2023/04/05 20:46:04;;;;;;;;;;;;;;;;;;6200170;23;19931;-92
2023/04/05 20:48:35;;;;;;;;;;;;;;;;;;6227466;23;19924;-92
2023/04/05 20:51:06;;;;;;;;;;;;;;;;;;6191532;23;19924;-93
2023/04/05 20:53:35;;;;;;;;;;;;;;;;;;6221441;23;19927;-93
2023/04/05 20:56:03;;;;;;;;;;;;;;;;;;6190942;23;19920;-93
2023/04/05 20:58:30;;;;;;;;;;;;;;;;;;6192782;23;19943;-93
2023/04/05 21:01:01;;;;;;;;;;;;;;;;;;6201404;23;19920;-94
2023/04/05 21:03:30;;;;;;;;;;;;;;;;;;6190181;23;19943;-93
2023/04/05 21:05:57;;;;;;;;;;;;;;;;;;6201662;23;19924;-93
2023/04/05 21:08:26;;;;;;;;;;;;;;;;;;6191434;23;19924;-93
2023/04/05 21:10:58;;;;;;;;;;;;;;;;;;6228404;23;19927;-93
2023/04/05 21:13:26;;;;;;;;;;;;;;;;;;6166974;23;19920;-93
2023/04/05 21:15:56;;;;;;;;;;;;;;;;;;6218988;23;20340;-93
2023/04/05 21:18:23;;;;;;;;;;;;;;;;;;6168583;23;19942;-94
2023/04/05 21:20:51;;;;;;;;;;;;;;;;;;6170126;23;19919;-94
2023/04/05 21:23:20;;;;;;;;;;;;;;;;;;6170107;23;19924;-93
2023/04/05 21:25:49;;;;;;;;;;;;;;;;;;6218102;23;19935;-91
2023/04/05 21:28:21;;;;;;;;;;;;;;;;;;6196269;23;19967;-94
2023/04/05 21:30:49;;;;;;;;;;;;;;;;;;6198094;23;19920;-94
2023/04/05 21:33:23;;;;;;;;;;;;;;;;;;6202731;23;20378;-94
2023/04/05 21:36:14;;;;;;;;;;;;;;;;;;6235583;23;19931;-94
2023/04/05 21:50:57;;;;;;;;;;;;;;;;;;6025616;23;19920;-94
2023/04/05 21:57:54;;;;;;;;;;;;;;;;;;6041999;23;20023;-94
2023/04/05 22:04:27;;;;;;;;;;;;;;;;;;6144939;23;19920;-86
2023/04/05 22:06:57;;;;;;;;;;;;;;;;;;6222650;23;20343;-87
2023/04/05 22:09:24;;;;;;;;;;;;;;;;;;6177543;23;20270;-87
2023/04/05 22:11:52;;;;;;;;;;;;;;;;;;6225140;23;19927;-88
2023/04/05 22:14:19;;;;;;;;;;;;;;;;;;6171718;23;19942;-86
2023/04/05 22:16:48;;;;;;;;;;;;;;;;;;6198218;23;19920;-85
2023/04/05 22:19:15;;;;;;;;;;;;;;;;;;6199435;23;19984;-85
2023/04/05 22:21:43;;;;;;;;;;;;;;;;;;6224175;23;19920;-85
2023/04/05 22:24:10;;;;;;;;;;;;;;;;;;6171984;23;19920;-86
2023/04/05 22:26:40;;;;;;;;;;;;;;;;;;6171689;23;19920;-86
2023/04/05 22:29:07;;;;;;;;;;;;;;;;;;6195435;23;19967;-88
2023/04/05 22:31:43;;;;;;;;;;;;;;;;;;6172556;23;19924;-86
2023/04/05 22:34:15;;;;;;;;;;;;;;;;;;6194374;23;19920;-86
2023/04/05 22:36:44;;;;;;;;;;;;;;;;;;6209057;23;19920;-87
2023/04/05 22:39:12;;;;;;;;;;;;;;;;;;6227244;23;19920;-87
2023/04/05 22:41:43;;;;;;;;;;;;;;;;;;6200470;23;19926;-87
2023/04/05 22:44:12;;;;;;;;;;;;;;;;;;6174967;23;19930;-87
2023/04/05 22:46:40;;;;;;;;;;;;;;;;;;6177251;23;19942;-86
2023/04/05 22:49:07;;;;;;;;;;;;;;;;;;6198133;23;19919;-86
2023/04/05 22:51:36;;;;;;;;;;;;;;;;;;6173666;23;19920;-86
2023/04/05 22:54:04;;;;;;;;;;;;;;;;;;6173653;23;19920;-86
2023/04/05 22:56:39;;;;;;;;;;;;;;;;;;6207892;23;19926;-87
2023/04/05 23:01:48;;;;;;;;;;;;;;;;;;6191118;23;19920;-85
2023/04/05 23:04:15;;;;;;;;;;;;;;;;;;6196709;23;19926;-87
2023/04/05 23:06:57;;;;;;;;;;;;;;;;;;6223276;23;19926;-86
2023/04/05 23:09:27;;;;;;;;;;;;;;;;;;6195943;23;19920;-85
2023/04/05 23:11:55;;;;;;;;;;;;;;;;;;6195324;23;19920;-87
2023/04/05 23:14:26;;;;;;;;;;;;;;;;;;6168940;23;19920;-86
2023/04/05 23:16:54;;;;;;;;;;;;;;;;;;6170645;23;19924;-85
2023/04/05 23:19:21;;;;;;;;;;;;;;;;;;6169159;23;19924;-86
2023/04/05 23:21:49;;;;;;;;;;;;;;;;;;6169350;23;19920;-85
2023/04/05 23:24:18;;;;;;;;;;;;;;;;;;6220091;23;19920;-87
2023/04/05 23:26:47;;;;;;;;;;;;;;;;;;6192772;23;19920;-86
2023/04/05 23:29:17;;;;;;;;;;;;;;;;;;6193397;23;19920;-87
2023/04/05 23:31:47;;;;;;;;;;;;;;;;;;6169855;23;19926;-86
2023/04/05 23:34:15;;;;;;;;;;;;;;;;;;6169685;23;20366;-85
2023/04/05 23:36:46;;;;;;;;;;;;;;;;;;6171083;23;19920;-87
2023/04/05 23:39:13;;;;;;;;;;;;;;;;;;6169218;23;19927;-86
2023/04/05 23:41:41;;;;;;;;;;;;;;;;;;6168501;23;19927;-87
2023/04/05 23:44:10;;;;;;;;;;;;;;;;;;6193437;23;19920;-87
2023/04/05 23:46:37;;;;;;;;;;;;;;;;;;6194274;23;19920;-84
2023/04/05 23:49:08;;;;;;;;;;;;;;;;;;6193968;23;19920;-85
2023/04/05 23:51:35;;;;;;;;;;;;;;;;;;6169736;23;19931;-85
2023/04/05 23:54:02;;;;;;;;;;;;;;;;;;6194361;23;20383;-85
2023/04/05 23:56:33;;;;;;;;;;;;;;;;;;6194422;23;20291;-85
2023/04/05 23:59:00;;;;;;;;;;;;;;;;;;6168499;23;19923;-88
